Terminal Aerodrome Forecast
Issued by NWS Boise, ID

Home | Current Version | Previous Version | Text Only | Print | Product List | Glossary On
Versions: 1 2 3 4 5 6 7 8 9 10 11 12 13 14 15 16
000
FTUS45 KBOI 241120
TAFBOI
TAF
KBOI 241120Z 2412/2512 12010KT P6SM -RA SCT025 OVC035
     FM241900 13010KT P6SM -RA BKN050 OVC100
     FM242300 32010KT P6SM -RA OVC040
     FM250300 13006KT P6SM VCSH BKN050 OVC100
     FM250900 15008KT P6SM -RA BKN035 OVC050=

USA.gov is the U.S. government's official web portal to all federal, state and local government web resources and services.